createdAt,value
2019-06-07T00:01:16.187Z,4.70
2019-06-07T00:03:46.097Z,5.13
2019-06-07T00:06:21.310Z,4.28
2019-06-07T00:08:46.538Z,4.37
2019-06-07T00:11:20.292Z,3.17
2019-06-07T00:13:47.208Z,3.30
2019-06-07T00:16:19.885Z,2.80
2019-06-07T00:18:46.614Z,3.00
2019-06-07T00:21:17.856Z,3.20
2019-06-07T00:23:46.157Z,3.10
2019-06-07T00:26:18.192Z,2.80
2019-06-07T00:28:45.609Z,2.63
2019-06-07T00:31:17.260Z,2.27
2019-06-07T00:33:45.081Z,2.17
2019-06-07T00:36:16.222Z,2.57
2019-06-07T00:38:44.707Z,2.63
2019-06-07T00:41:15.010Z,2.60
2019-06-07T00:43:44.130Z,2.23
2019-06-07T00:46:15.743Z,2.55
2019-06-07T00:48:43.552Z,2.83
2019-06-07T00:51:14.070Z,2.90
2019-06-07T00:53:45.512Z,2.70
2019-06-07T00:56:16.196Z,3.40
2019-06-07T00:58:44.974Z,3.33
2019-06-07T01:01:17.599Z,4.70
2019-06-07T01:03:44.584Z,4.33
2019-06-07T01:06:14.920Z,4.37
2019-06-07T01:08:43.896Z,3.53
2019-06-07T01:11:13.603Z,4.20
2019-06-07T01:13:42.600Z,4.00
2019-06-07T01:16:11.696Z,3.20
2019-06-07T01:18:46.159Z,3.97
2019-06-07T01:21:11.629Z,4.28
2019-06-07T01:24:08.095Z,3.60
2019-06-07T01:26:11.972Z,3.45
2019-06-07T01:28:40.865Z,3.10
2019-06-07T01:31:10.007Z,3.60
2019-06-07T01:33:50.881Z,3.20
2019-06-07T01:36:10.097Z,2.92
2019-06-07T01:38:39.054Z,2.67
2019-06-07T01:41:09.210Z,3.75
2019-06-07T01:43:38.102Z,3.30
2019-06-07T01:46:07.503Z,3.85
2019-06-07T01:48:48.950Z,3.00
2019-06-07T01:51:07.419Z,2.90
2019-06-07T01:53:36.369Z,2.77
2019-06-07T01:56:05.219Z,3.53
2019-06-07T01:58:34.113Z,3.63
2019-06-07T02:01:03.112Z,3.67
2019-06-07T02:03:33.315Z,3.00
2019-06-07T02:06:02.539Z,3.40
2019-06-07T02:08:34.208Z,3.17
2019-06-07T02:11:01.851Z,3.33
2019-06-07T02:13:30.876Z,3.30
2019-06-07T02:15:59.949Z,3.33
2019-06-07T02:18:34.339Z,3.93
2019-06-07T02:20:59.358Z,3.53
2019-06-07T02:23:31.101Z,3.80
2019-06-07T02:25:58.778Z,3.73
2019-06-07T02:28:42.172Z,4.00
2019-06-07T02:31:00.613Z,4.07
2019-06-07T02:33:34.175Z,2.93
2019-06-07T02:35:59.361Z,3.10
2019-06-07T02:38:35.930Z,3.70
2019-06-07T02:40:58.781Z,3.00
2019-06-07T02:43:32.411Z,3.10
2019-06-07T02:46:23.332Z,3.03
2019-06-07T02:48:35.358Z,3.33
2019-06-07T02:50:59.842Z,2.63
2019-06-07T02:53:30.762Z,3.10
2019-06-07T02:56:34.917Z,3.23
2019-06-07T02:58:35.284Z,2.90
2019-06-07T03:01:08.661Z,3.23
2019-06-07T03:03:39.462Z,3.27
2019-06-07T03:06:05.516Z,3.40
2019-06-07T03:08:36.599Z,2.93
2019-06-07T03:11:06.144Z,2.70
2019-06-07T03:13:40.783Z,3.23
2019-06-07T03:16:11.119Z,3.98
2019-06-07T03:19:01.301Z,3.80
2019-06-07T03:21:33.788Z,3.00
2019-06-07T03:24:03.795Z,3.17
2019-06-07T03:26:42.488Z,3.83
2019-06-07T03:29:03.729Z,3.90
2019-06-07T03:31:41.625Z,3.47
2019-06-07T03:34:03.384Z,3.30
2019-06-07T03:36:32.775Z,3.50
2019-06-07T03:39:02.775Z,3.70
2019-06-07T03:41:36.917Z,5.03
2019-06-07T03:44:02.299Z,4.20
2019-06-07T03:46:35.791Z,5.23
2019-06-07T03:49:02.320Z,5.03
2019-06-07T03:51:32.910Z,5.20
2019-06-07T03:54:02.060Z,4.83
2019-06-07T03:56:31.866Z,4.77
2019-06-07T03:59:01.485Z,4.20
2019-06-07T04:01:31.963Z,4.37
2019-06-07T04:04:00.902Z,4.77
2019-06-07T04:06:32.560Z,4.83
2019-06-07T04:09:00.359Z,4.90
2019-06-07T04:11:30.067Z,5.23
2019-06-07T04:13:59.131Z,5.83
2019-06-07T04:16:28.941Z,5.20
2019-06-07T04:18:58.559Z,5.30
2019-06-07T04:21:29.743Z,5.28
2019-06-07T04:23:58.078Z,5.50
2019-06-07T04:26:30.934Z,5.40
2019-06-07T04:31:28.354Z,5.07
2019-06-07T04:33:57.437Z,5.03
2019-06-07T04:36:41.813Z,5.60
2019-06-07T04:39:00.129Z,5.07
2019-06-07T04:41:31.020Z,4.90
2019-06-07T04:44:02.682Z,5.90
2019-06-07T04:46:35.178Z,5.93
2019-06-07T04:49:06.138Z,5.30
2019-06-07T04:51:37.233Z,5.20
2019-06-07T04:54:06.684Z,4.60
2019-06-07T04:56:40.305Z,5.00
2019-06-07T04:59:06.415Z,4.83
2019-06-07T05:01:37.458Z,5.03
2019-06-07T05:04:06.246Z,5.07
2019-06-07T05:06:37.385Z,5.15
2019-06-07T05:09:06.554Z,5.20
2019-06-07T05:11:36.443Z,5.33
2019-06-07T05:14:06.009Z,6.22
2019-06-07T05:16:38.348Z,6.13
2019-06-07T05:19:05.533Z,6.83
2019-06-07T05:21:58.336Z,6.20
2019-06-07T05:24:09.509Z,7.23
2019-06-07T05:26:38.743Z,6.27
2019-06-07T05:29:06.318Z,6.83
2019-06-07T05:31:37.481Z,6.00
2019-06-07T05:34:06.008Z,5.40
2019-06-07T05:36:38.597Z,5.30
2019-06-07T05:39:07.841Z,6.20
2019-06-07T05:41:39.328Z,6.87
2019-06-07T05:44:12.801Z,6.17
2019-06-07T05:46:41.962Z,6.27
2019-06-07T05:49:10.969Z,6.58
2019-06-07T05:51:43.292Z,6.53
2019-06-07T05:54:11.206Z,6.58
2019-06-07T05:56:41.161Z,7.00
2019-06-07T05:59:11.343Z,6.20
2019-06-07T06:01:53.142Z,6.63
2019-06-07T06:04:11.583Z,6.50
2019-06-07T06:06:43.759Z,6.37
2019-06-07T06:09:14.164Z,6.07
2019-06-07T06:11:54.851Z,6.37
2019-06-07T06:14:12.373Z,6.55
2019-06-07T06:16:45.380Z,6.27
2019-06-07T06:19:12.303Z,6.80
2019-06-07T06:21:44.817Z,6.40
2019-06-07T06:24:12.150Z,6.60
2019-06-07T06:26:49.951Z,5.70
2019-06-07T06:29:12.272Z,6.50
2019-06-07T06:32:02.523Z,5.80
2019-06-07T06:34:11.903Z,6.60
2019-06-07T06:36:46.624Z,5.80
2019-06-07T06:39:11.728Z,5.42
2019-06-07T06:41:50.770Z,5.60
2019-06-07T06:44:11.253Z,7.10
2019-06-07T06:46:44.775Z,6.23
2019-06-07T06:49:12.006Z,5.78
2019-06-07T06:51:42.982Z,6.00
2019-06-07T06:54:12.346Z,6.37
2019-06-07T06:56:44.854Z,4.93
2019-06-07T06:59:37.357Z,5.20
2019-06-07T07:01:42.670Z,5.57
2019-06-07T07:04:13.612Z,6.47
2019-06-07T07:06:43.154Z,5.43
2019-06-07T07:09:11.940Z,5.83
2019-06-07T07:11:56.304Z,6.40
2019-06-07T07:14:13.085Z,6.05
2019-06-07T07:16:42.847Z,6.13
2019-06-07T07:19:12.422Z,6.27
2019-06-07T07:21:45.090Z,6.17
2019-06-07T07:24:21.825Z,5.90
2019-06-07T07:26:46.796Z,5.53
2019-06-07T07:29:14.307Z,5.27
2019-06-07T07:31:43.132Z,5.37
2019-06-07T07:34:32.419Z,5.08
2019-06-07T07:36:44.807Z,5.70
2019-06-07T07:39:13.896Z,5.25
2019-06-07T07:42:04.489Z,5.50
2019-06-07T07:44:13.315Z,4.60
2019-06-07T07:46:42.105Z,5.20
2019-06-07T07:49:11.434Z,4.60
2019-06-07T07:51:40.298Z,5.10
2019-06-07T07:54:11.250Z,5.80
2019-06-07T07:56:40.333Z,4.70
2019-06-07T07:59:10.230Z,5.03
2019-06-07T08:01:39.139Z,4.20
2019-06-07T08:04:08.441Z,3.80
2019-06-07T08:06:37.428Z,4.10
2019-06-07T08:09:08.146Z,4.25
2019-06-07T08:11:36.969Z,3.73
2019-06-07T08:14:05.849Z,4.42
2019-06-07T08:16:34.637Z,3.75
2019-06-07T08:19:04.569Z,4.15
2019-06-07T08:21:33.649Z,3.80
2019-06-07T08:24:05.277Z,3.75
2019-06-07T08:26:33.215Z,3.87
2019-06-07T08:29:03.103Z,3.77
2019-06-07T08:31:32.082Z,4.05
2019-06-07T08:34:01.054Z,3.95
2019-06-07T08:36:41.200Z,4.33
2019-06-07T08:39:07.198Z,3.85
2019-06-07T08:41:31.228Z,3.40
2019-06-07T08:44:08.600Z,3.55
2019-06-07T08:46:30.651Z,3.37
2019-06-07T08:49:04.259Z,3.50
2019-06-07T08:51:30.075Z,3.23
2019-06-07T08:54:18.756Z,3.10
2019-06-07T08:56:29.491Z,2.70
2019-06-07T08:59:05.538Z,2.52
2019-06-07T09:01:29.117Z,3.13
2019-06-07T09:04:02.665Z,3.42
2019-06-07T09:07:01.643Z,2.85
2019-06-07T09:09:01.976Z,3.05
2019-06-07T09:11:29.599Z,3.57
2019-06-07T09:14:02.206Z,2.98
2019-06-07T09:16:29.022Z,2.73
2019-06-07T09:19:03.838Z,3.30
2019-06-07T09:21:29.874Z,3.00
2019-06-07T09:24:02.939Z,3.20
2019-06-07T09:26:29.602Z,3.58
2019-06-07T09:29:03.281Z,4.10
2019-06-07T09:31:51.280Z,3.60
2019-06-07T09:34:08.328Z,3.52
2019-06-07T09:36:30.500Z,3.43
2019-06-07T09:39:06.451Z,4.00
2019-06-07T09:41:46.831Z,3.47
2019-06-07T09:44:14.340Z,3.58
2019-06-07T09:46:31.895Z,3.60
2019-06-07T09:49:14.213Z,3.98
2019-06-07T09:51:31.212Z,3.92
2019-06-07T09:54:01.276Z,3.42
2019-06-07T09:56:30.738Z,3.87
2019-06-07T09:59:02.627Z,3.80
2019-06-07T10:01:30.156Z,4.10
2019-06-07T10:04:05.860Z,3.60
2019-06-07T10:06:29.784Z,3.63
2019-06-07T10:10:08.279Z,3.75
2019-06-07T10:11:29.101Z,3.40
2019-06-07T10:13:58.343Z,3.75
2019-06-07T10:16:27.293Z,2.90
2019-06-07T10:18:56.193Z,3.58
2019-06-07T10:21:26.304Z,3.25
2019-06-07T10:23:55.196Z,2.83
2019-06-07T10:26:23.986Z,2.80
2019-06-07T10:28:53.658Z,2.95
2019-06-07T10:31:22.595Z,2.90
2019-06-07T10:33:51.480Z,2.35
2019-06-07T10:36:20.372Z,2.10
2019-06-07T10:38:49.365Z,2.00
2019-06-07T10:41:18.256Z,2.02
2019-06-07T10:43:47.155Z,2.17
2019-06-07T10:46:16.140Z,2.12
2019-06-07T10:48:45.030Z,1.80
2019-06-07T10:51:14.780Z,2.25
2019-06-07T10:53:43.939Z,1.90
2019-06-07T10:56:13.400Z,2.36
2019-06-07T10:58:43.668Z,2.20
2019-06-07T11:01:14.330Z,2.00
2019-06-07T11:03:43.205Z,2.15
2019-06-07T11:06:12.328Z,1.92
2019-06-07T11:08:41.281Z,2.50
2019-06-07T11:11:12.093Z,2.42
2019-06-07T11:13:41.214Z,2.15
2019-06-07T11:16:11.257Z,1.95
2019-06-07T11:18:40.124Z,2.10
2019-06-07T11:21:10.075Z,2.22
2019-06-07T11:23:39.136Z,2.05
2019-06-07T11:26:08.537Z,2.40
2019-06-07T11:28:37.430Z,1.70
2019-06-07T11:31:06.409Z,1.90
2019-06-07T11:33:35.418Z,2.00
2019-06-07T11:36:04.411Z,2.10
2019-06-07T11:38:33.403Z,2.02
2019-06-07T11:41:02.191Z,1.47
2019-06-07T11:43:31.084Z,1.67
2019-06-07T11:45:59.977Z,1.62
2019-06-07T11:48:28.868Z,2.00
2019-06-07T11:50:59.292Z,2.05
2019-06-07T11:53:28.420Z,1.87
2019-06-07T11:55:57.282Z,2.10
2019-06-07T11:58:26.193Z,1.90
2019-06-07T12:00:55.070Z,2.08
2019-06-07T12:03:23.954Z,1.47
2019-06-07T12:05:52.741Z,1.60
2019-06-07T12:08:21.531Z,1.50
2019-06-07T12:10:50.323Z,1.80
2019-06-07T12:13:19.418Z,1.40
2019-06-07T12:15:49.279Z,1.70
2019-06-07T12:18:19.687Z,1.37
2019-06-07T12:20:48.755Z,1.45
2019-06-07T12:23:18.099Z,1.37
2019-06-07T12:25:47.177Z,1.67
2019-06-07T12:28:16.811Z,1.52
2019-06-07T12:30:45.752Z,1.55
2019-06-07T12:33:15.497Z,1.87
2019-06-07T12:35:44.455Z,1.20
2019-06-07T12:38:14.558Z,1.40
2019-06-07T12:40:56.771Z,1.40
2019-06-07T12:43:14.686Z,1.37
2019-06-07T12:45:45.500Z,1.27
2019-06-07T12:48:17.596Z,1.67
2019-06-07T12:50:44.768Z,1.52
2019-06-07T12:53:13.783Z,1.37
2019-06-07T12:55:42.818Z,1.57
2019-06-07T12:58:11.857Z,1.45
2019-06-07T13:00:40.845Z,1.40
2019-06-07T13:03:10.862Z,1.48
2019-06-07T13:05:39.786Z,1.47
2019-06-07T13:08:09.361Z,1.66
2019-06-07T13:10:38.253Z,1.70
2019-06-07T13:13:07.430Z,1.60
2019-06-07T13:15:36.412Z,1.15
2019-06-07T13:18:05.439Z,1.45
2019-06-07T13:20:34.329Z,1.30
2019-06-07T13:23:03.223Z,1.30
2019-06-07T13:25:45.558Z,1.50
2019-06-07T13:28:02.642Z,1.35
2019-06-07T13:30:31.743Z,1.10
2019-06-07T13:33:00.643Z,1.70
2019-06-07T13:35:29.772Z,1.57
2019-06-07T13:37:59.809Z,1.32
2019-06-07T13:40:28.839Z,1.50
2019-06-07T13:42:57.731Z,1.25
2019-06-07T13:45:27.946Z,1.40
2019-06-07T13:47:56.947Z,1.30
2019-06-07T13:50:26.073Z,1.53
2019-06-07T13:52:55.138Z,1.72
2019-06-07T13:55:24.068Z,1.15
2019-06-07T13:57:53.025Z,1.32
2019-06-07T14:00:24.792Z,1.40
2019-06-07T14:02:53.880Z,1.50
2019-06-07T14:05:23.112Z,1.32
2019-06-07T14:07:52.079Z,1.35
2019-06-07T14:10:21.636Z,1.80
2019-06-07T14:12:50.777Z,1.50
2019-06-07T14:15:20.480Z,1.83
2019-06-07T14:17:50.606Z,1.52
2019-06-07T14:20:25.421Z,1.67
2019-06-07T14:22:54.321Z,1.85
2019-06-07T14:25:23.096Z,1.57
2019-06-07T14:27:52.006Z,1.10
2019-06-07T14:30:21.858Z,1.47
2019-06-07T14:32:50.917Z,1.45
2019-06-07T14:35:19.973Z,1.67
2019-06-07T14:37:48.801Z,2.05
2019-06-07T14:40:19.438Z,1.60
2019-06-07T14:42:48.324Z,1.70
2019-06-07T14:45:17.731Z,1.47
2019-06-07T14:47:46.620Z,1.55
2019-06-07T14:50:15.805Z,1.67
2019-06-07T14:52:44.723Z,1.55
2019-06-07T14:55:14.014Z,1.87
2019-06-07T14:57:42.901Z,1.50
2019-06-07T15:00:14.365Z,1.52
2019-06-07T15:02:43.244Z,1.75
2019-06-07T15:05:13.309Z,1.77
2019-06-07T15:07:42.152Z,1.40
2019-06-07T15:10:11.766Z,1.65
2019-06-07T15:12:40.562Z,1.57
2019-06-07T15:15:12.180Z,1.65
2019-06-07T15:17:42.737Z,1.57
2019-06-07T15:20:12.447Z,1.82
2019-06-07T15:22:41.446Z,1.70
2019-06-07T15:25:10.849Z,1.20
2019-06-07T15:27:39.738Z,1.20
2019-06-07T15:30:11.760Z,1.45
2019-06-07T15:32:40.797Z,1.37
2019-06-07T15:35:10.709Z,0.98
2019-06-07T15:37:39.709Z,1.35
2019-06-07T15:40:10.031Z,1.40
2019-06-07T15:42:51.360Z,1.20
2019-06-07T15:45:11.307Z,1.30
2019-06-07T15:47:40.735Z,1.20
2019-06-07T15:50:11.020Z,1.34
2019-06-07T15:52:41.267Z,1.40
2019-06-07T15:55:11.977Z,1.00
2019-06-07T15:57:42.167Z,1.20
2019-06-07T16:00:14.083Z,1.45
2019-06-07T16:02:43.056Z,1.00
2019-06-07T16:05:13.072Z,0.96
2019-06-07T16:07:42.913Z,1.07
2019-06-07T16:10:15.296Z,1.40
2019-06-07T16:12:59.087Z,1.22
2019-06-07T16:15:15.354Z,1.00
2019-06-07T16:17:44.289Z,1.02
2019-06-07T16:20:13.957Z,1.12
2019-06-07T16:22:43.988Z,1.10
2019-06-07T16:25:14.718Z,1.60
2019-06-07T16:27:44.816Z,1.10
2019-06-07T16:30:14.321Z,1.30
2019-06-07T16:32:44.261Z,1.07
2019-06-07T16:35:14.928Z,1.40
2019-06-07T16:37:45.806Z,1.00
2019-06-07T16:40:15.309Z,1.47
2019-06-07T16:42:45.097Z,0.90
2019-06-07T16:45:15.304Z,0.90
2019-06-07T16:47:47.485Z,0.95
2019-06-07T16:50:15.203Z,0.90
2019-06-07T16:52:44.898Z,1.40
2019-06-07T16:55:14.954Z,1.27
2019-06-07T16:57:45.066Z,1.20
2019-06-07T17:00:15.129Z,1.15
2019-06-07T17:02:44.993Z,0.93
2019-06-07T17:05:16.264Z,1.03
2019-06-07T17:07:46.720Z,0.90
2019-06-07T17:10:16.190Z,0.90
2019-06-07T17:12:46.813Z,1.10
2019-06-07T17:15:16.593Z,0.70
2019-06-07T17:17:46.957Z,1.07
2019-06-07T17:20:16.906Z,0.77
2019-06-07T17:22:45.826Z,0.82
2019-06-07T17:25:16.202Z,1.00
2019-06-07T17:27:46.411Z,0.85
2019-06-07T17:30:17.539Z,0.97
2019-06-07T17:32:55.231Z,1.07
2019-06-07T17:35:18.941Z,1.45
2019-06-07T17:37:49.559Z,0.80
2019-06-07T17:40:18.796Z,0.70
2019-06-07T17:42:48.965Z,0.90
2019-06-07T17:45:19.635Z,1.00
2019-06-07T17:47:49.736Z,1.15
2019-06-07T17:50:20.265Z,0.87
2019-06-07T17:52:50.203Z,0.80
2019-06-07T17:55:19.482Z,1.47
2019-06-07T17:57:48.762Z,0.90
2019-06-07T18:00:28.806Z,1.20
2019-06-07T18:02:51.083Z,1.30
2019-06-07T18:05:20.273Z,1.00
2019-06-07T18:07:51.859Z,1.27
2019-06-07T18:10:38.384Z,1.20
2019-06-07T18:13:08.331Z,1.40
2019-06-07T18:15:42.470Z,1.87
2019-06-07T18:18:11.763Z,1.98
2019-06-07T18:20:41.063Z,1.30
2019-06-07T18:23:11.958Z,1.08
2019-06-07T18:25:41.095Z,1.40
2019-06-07T18:28:10.706Z,1.40
2019-06-07T18:30:39.700Z,1.15
2019-06-07T18:33:09.615Z,1.26
2019-06-07T18:35:38.607Z,1.90
2019-06-07T18:38:10.728Z,1.80
2019-06-07T18:40:38.950Z,1.47
2019-06-07T18:43:08.822Z,1.24
2019-06-07T18:45:37.655Z,1.17
2019-06-07T18:48:07.356Z,1.10
2019-06-07T18:50:36.915Z,1.02
2019-06-07T18:53:06.078Z,1.00
2019-06-07T18:55:36.298Z,0.72
2019-06-07T18:58:05.304Z,0.80
2019-06-07T19:00:35.855Z,0.83
2019-06-07T19:03:05.116Z,1.10
2019-06-07T19:05:34.006Z,1.40
2019-06-07T19:08:02.898Z,2.27
2019-06-07T19:10:31.814Z,2.17
2019-06-07T19:13:00.886Z,1.50
2019-06-07T19:15:30.289Z,1.63
2019-06-07T19:18:00.733Z,1.02
2019-06-07T19:20:30.240Z,0.83
2019-06-07T19:23:00.552Z,1.10
2019-06-07T19:25:29.543Z,1.10
2019-06-07T19:27:59.136Z,1.17
2019-06-07T19:30:28.348Z,1.07
2019-06-07T19:32:57.404Z,1.30
2019-06-07T19:35:26.231Z,1.15
2019-06-07T19:37:55.874Z,1.00
2019-06-07T19:40:24.833Z,1.00
2019-06-07T19:42:54.144Z,1.27
2019-06-07T19:45:30.461Z,1.80
2019-06-07T19:47:54.487Z,1.07
2019-06-07T19:50:23.373Z,1.25
2019-06-07T19:52:53.092Z,1.15
2019-06-07T19:55:22.277Z,0.70
2019-06-07T19:57:53.268Z,1.10
2019-06-07T20:00:22.948Z,1.07
2019-06-07T20:02:53.684Z,1.07
2019-06-07T20:05:22.833Z,0.93
2019-06-07T20:07:51.653Z,1.10
2019-06-07T20:10:20.744Z,1.02
2019-06-07T20:12:49.644Z,1.80
2019-06-07T20:15:28.615Z,1.32
2019-06-07T20:17:49.158Z,2.00
2019-06-07T20:20:18.459Z,1.80
2019-06-07T20:22:47.354Z,1.70
2019-06-07T20:25:16.565Z,1.47
2019-06-07T20:27:45.479Z,1.17
2019-06-07T20:30:15.178Z,1.47
2019-06-07T20:32:44.052Z,1.33
2019-06-07T20:35:13.755Z,1.63
2019-06-07T20:37:42.648Z,1.53
2019-06-07T20:40:23.450Z,1.10
2019-06-07T20:42:43.710Z,1.07
2019-06-07T20:45:14.038Z,1.37
2019-06-07T20:47:44.574Z,1.22
2019-06-07T20:50:13.472Z,1.50
2019-06-07T20:52:42.547Z,1.13
2019-06-07T20:55:12.472Z,1.63
2019-06-07T20:57:41.465Z,1.62
2019-06-07T21:00:21.113Z,1.50
2019-06-07T21:02:43.337Z,1.17
2019-06-07T21:05:12.429Z,1.03
2019-06-07T21:07:41.325Z,1.00
2019-06-07T21:10:11.389Z,1.20
2019-06-07T21:12:40.333Z,0.90
2019-06-07T21:15:14.152Z,1.10
2019-06-07T21:17:41.797Z,1.10
2019-06-07T21:20:14.266Z,1.10
2019-06-07T21:22:42.249Z,1.00
2019-06-07T21:25:12.300Z,1.30
2019-06-07T21:27:41.158Z,1.27
2019-06-07T21:30:11.630Z,0.90
2019-06-07T21:32:41.034Z,1.27
2019-06-07T21:35:12.208Z,0.78
2019-06-07T21:37:41.218Z,1.37
2019-06-07T21:40:12.229Z,1.15
2019-06-07T21:42:41.159Z,1.40
2019-06-07T21:45:11.818Z,1.10
2019-06-07T21:47:40.786Z,1.43
2019-06-07T21:50:12.665Z,1.77
2019-06-07T21:52:41.640Z,1.30
2019-06-07T21:55:11.616Z,1.30
2019-06-07T21:57:40.447Z,1.47
2019-06-07T22:00:24.942Z,1.20
2019-06-07T22:02:54.004Z,1.00
2019-06-07T22:05:22.890Z,1.20
2019-06-07T22:07:51.783Z,1.10
2019-06-07T22:10:20.883Z,1.10
2019-06-07T22:12:49.769Z,1.10
2019-06-07T22:15:33.010Z,1.10
2019-06-07T22:17:49.393Z,0.73
2019-06-07T22:20:18.285Z,1.10
2019-06-07T22:22:47.176Z,0.90
2019-06-07T22:25:16.154Z,0.90
2019-06-07T22:27:44.961Z,0.90
2019-06-07T22:30:15.298Z,1.00
2019-06-07T22:32:44.176Z,0.67
2019-06-07T22:35:13.271Z,0.90
2019-06-07T22:37:42.164Z,0.80
2019-06-07T22:40:12.442Z,0.70
2019-06-07T22:42:41.481Z,0.80
2019-06-07T22:45:11.258Z,0.80
2019-06-07T22:47:40.083Z,1.27
2019-06-07T22:50:10.705Z,0.97
2019-06-07T22:52:39.811Z,1.00
2019-06-07T22:55:11.950Z,1.07
2019-06-07T22:57:57.368Z,1.37
2019-06-07T23:00:28.154Z,1.00
2019-06-07T23:02:57.298Z,1.40
2019-06-07T23:05:26.187Z,1.00
2019-06-07T23:07:55.075Z,1.20
2019-06-07T23:10:23.971Z,0.90
2019-06-07T23:12:55.929Z,0.73
2019-06-07T23:15:24.823Z,1.00
2019-06-07T23:17:53.717Z,1.17
2019-06-07T23:20:22.616Z,1.02
2019-06-07T23:22:51.495Z,0.77
2019-06-07T23:25:24.200Z,0.85
2019-06-07T23:27:51.017Z,0.70
2019-06-07T23:30:21.874Z,0.95
2019-06-07T23:32:50.860Z,0.60
2019-06-07T23:35:21.196Z,0.95
2019-06-07T23:37:53.054Z,0.70
2019-06-07T23:40:21.923Z,0.70
2019-06-07T23:42:50.822Z,0.80
2019-06-07T23:45:19.705Z,0.82
2019-06-07T23:47:48.495Z,0.77
2019-06-07T23:50:17.716Z,1.20
2019-06-07T23:52:46.790Z,0.90
2019-06-07T23:55:16.087Z,0.90
2019-06-07T23:57:44.879Z,0.97
